Time,TemperatureF,DewpointF,PressureIn,WindDirection,WindDirectionDegrees,WindSpeedMPH,WindSpeedGustMPH,Humidity,HourlyPrecipIn,Conditions,Clouds,dailyrainin,SoftwareType,DateUTC
2013-04-13 00:05:00,46.0,44.6,29.80,WNW,292,0.0,-999.0,95,-99.99,,,0.00,Acu-Link.com,2013-04-13 04:05:00,
2013-04-13 00:20:00,46.2,44.8,29.80,South,180,0.0,-999.0,95,-99.99,,,0.00,Acu-Link.com,2013-04-13 04:20:00,
2013-04-13 00:36:00,45.9,44.0,29.80,SW,225,0.0,-999.0,93,-99.99,,,0.00,Acu-Link.com,2013-04-13 04:36:00,
2013-04-13 00:51:00,45.3,44.0,29.81,SSE,157,0.0,-999.0,95,-99.99,,,0.00,Acu-Link.com,2013-04-13 04:51:00,
2013-04-13 01:06:00,45.1,44.0,29.81,South,180,0.0,-999.0,96,-99.99,,,0.00,Acu-Link.com,2013-04-13 05:06:00,
2013-04-13 01:21:00,45.1,44.0,29.81,South,180,0.0,-999.0,96,-99.99,,,0.00,Acu-Link.com,2013-04-13 05:21:00,
2013-04-13 01:51:00,44.8,44.3,29.81,SW,225,0.0,-999.0,98,-99.99,,,0.00,Acu-Link.com,2013-04-13 05:51:00,
2013-04-13 02:06:00,44.2,43.7,29.81,South,180,0.0,-999.0,98,-99.99,,,0.00,Acu-Link.com,2013-04-13 06:06:00,
2013-04-13 02:21:00,44.2,43.7,29.81,SSE,157,0.0,-999.0,98,-99.99,,,0.00,Acu-Link.com,2013-04-13 06:21:00,
2013-04-13 02:36:00,44.2,43.9,29.82,WNW,292,0.0,-999.0,99,-99.99,,,0.00,Acu-Link.com,2013-04-13 06:36:00,
2013-04-13 02:52:00,43.9,43.6,29.82,NNW,337,0.0,-999.0,99,-99.99,,,0.00,Acu-Link.com,2013-04-13 06:52:00,
2013-04-13 03:22:00,45.0,44.7,29.83,SSE,157,0.0,-999.0,99,-99.99,,,0.00,Acu-Link.com,2013-04-13 07:22:00,
2013-04-13 03:37:00,44.8,44.5,29.83,SSE,157,0.0,-999.0,99,-99.99,,,0.00,Acu-Link.com,2013-04-13 07:37:00,
2013-04-13 04:08:00,43.9,43.6,29.83,South,180,0.0,-999.0,99,-99.99,,,0.00,Acu-Link.com,2013-04-13 08:08:00,
2013-04-13 04:24:00,43.9,43.6,29.82,South,180,0.0,-999.0,99,-99.99,,,0.00,Acu-Link.com,2013-04-13 08:24:00,
2013-04-13 04:54:00,43.0,42.5,29.82,South,180,0.0,-999.0,98,-99.99,,,0.00,Acu-Link.com,2013-04-13 08:54:00,
2013-04-13 05:09:00,42.6,41.8,29.83,South,180,0.0,-999.0,97,-99.99,,,0.00,Acu-Link.com,2013-04-13 09:09:00,
2013-04-13 05:24:00,42.3,42.0,29.83,SW,225,0.0,-999.0,99,-99.99,,,0.00,Acu-Link.com,2013-04-13 09:24:00,
2013-04-13 05:39:00,42.1,41.8,29.84,South,180,0.0,-999.0,99,-99.99,,,0.00,Acu-Link.com,2013-04-13 09:39:00,
2013-04-13 06:10:00,41.2,40.9,29.84,SSE,157,0.0,-999.0,99,-99.99,,,0.00,Acu-Link.com,2013-04-13 10:10:00,
2013-04-13 06:25:00,41.2,40.9,29.85,NW,315,0.0,-999.0,99,-99.99,,,0.00,Acu-Link.com,2013-04-13 10:25:00,
2013-04-13 06:40:00,41.0,40.7,29.86,NW,315,0.0,-999.0,99,-99.99,,,0.00,Acu-Link.com,2013-04-13 10:40:00,
2013-04-13 06:55:00,41.0,40.7,29.86,SSE,157,0.0,-999.0,99,-99.99,,,0.00,Acu-Link.com,2013-04-13 10:55:00,
2013-04-13 07:10:00,41.0,40.7,29.87,SSE,157,0.0,-999.0,99,-99.99,,,0.00,Acu-Link.com,2013-04-13 11:10:00,
2013-04-13 07:25:00,41.0,40.7,29.87,South,180,0.0,-999.0,99,-99.99,,,0.00,Acu-Link.com,2013-04-13 11:25:00,
2013-04-13 07:40:00,40.8,40.5,29.88,NW,315,0.0,-999.0,99,-99.99,,,0.00,Acu-Link.com,2013-04-13 11:40:00,
2013-04-13 07:56:00,40.8,40.5,29.89,SSE,157,0.0,-999.0,99,-99.99,,,0.00,Acu-Link.com,2013-04-13 11:56:00,
2013-04-13 09:11:00,46.8,46.5,29.90,SSE,157,0.0,-999.0,99,-99.99,,,0.00,Acu-Link.com,2013-04-13 13:11:00,
2013-04-13 09:42:00,50.7,46.0,29.91,NW,315,2.2,-999.0,84,-99.99,,,0.00,Acu-Link.com,2013-04-13 13:42:00,
2013-04-13 09:57:00,53.1,46.1,29.91,WNW,292,4.2,-999.0,77,-99.99,,,0.00,Acu-Link.com,2013-04-13 13:57:00,
2013-04-13 10:12:00,54.9,46.8,29.92,NW,315,0.0,-999.0,74,-99.99,,,0.00,Acu-Link.com,2013-04-13 14:12:00,
2013-04-13 10:27:00,57.2,45.5,29.91,NW,315,2.2,-999.0,65,-99.99,,,0.00,Acu-Link.com,2013-04-13 14:27:00,
2013-04-13 10:42:00,58.5,45.5,29.91,NNW,337,3.2,-999.0,62,-99.99,,,0.00,Acu-Link.com,2013-04-13 14:42:00,
2013-04-13 10:58:00,59.9,45.1,29.91,NNW,337,2.2,-999.0,58,-99.99,,,0.00,Acu-Link.com,2013-04-13 14:58:00,
2013-04-13 11:13:00,61.5,46.6,29.92,SSW,202,2.7,-999.0,58,-99.99,,,0.00,Acu-Link.com,2013-04-13 15:13:00,
2013-04-13 11:44:00,63.1,45.2,29.92,WNW,292,3.2,-999.0,52,-99.99,,,0.00,Acu-Link.com,2013-04-13 15:44:00,
2013-04-13 11:59:00,65.5,46.4,29.92,SSW,202,2.2,-999.0,50,-99.99,,,0.00,Acu-Link.com,2013-04-13 15:59:00,
2013-04-13 12:14:00,64.2,44.6,29.92,NW,315,2.2,-999.0,49,-99.99,,,0.00,Acu-Link.com,2013-04-13 16:14:00,
2013-04-13 12:29:00,66.0,45.2,29.91,NW,315,2.7,-999.0,47,-99.99,,,0.00,Acu-Link.com,2013-04-13 16:29:00,
2013-04-13 12:45:00,67.5,44.8,29.90,NNW,337,2.7,-999.0,44,-99.99,,,0.00,Acu-Link.com,2013-04-13 16:45:00,
2013-04-13 13:15:00,70.5,45.0,29.88,NNW,337,2.2,-999.0,40,-99.99,,,0.00,Acu-Link.com,2013-04-13 17:15:00,
2013-04-13 13:30:00,70.3,39.8,29.87,SSE,157,2.7,-999.0,33,-99.99,,,0.00,Acu-Link.com,2013-04-13 17:30:00,
2013-04-13 14:01:00,71.2,38.2,29.86,SSE,157,1.7,-999.0,30,-99.99,,,0.00,Acu-Link.com,2013-04-13 18:01:00,
2013-04-13 14:31:00,72.9,36.0,29.85,NNW,337,0.0,-999.0,26,-99.99,,,0.00,Acu-Link.com,2013-04-13 18:31:00,
2013-04-13 14:46:00,74.7,36.5,29.84,NW,315,3.7,-999.0,25,-99.99,,,0.00,Acu-Link.com,2013-04-13 18:46:00,
2013-04-13 15:01:00,74.8,36.6,29.84,SSW,202,2.2,-999.0,25,-99.99,,,0.00,Acu-Link.com,2013-04-13 19:01:00,
2013-04-13 15:32:00,75.7,41.2,29.82,SSE,157,0.0,-999.0,29,-99.99,,,0.00,Acu-Link.com,2013-04-13 19:32:00,
2013-04-13 15:47:00,76.1,40.6,29.82,West,270,1.7,-999.0,28,-99.99,,,0.00,Acu-Link.com,2013-04-13 19:47:00,
2013-04-13 16:02:00,74.8,36.6,29.81,WNW,292,3.2,-999.0,25,-99.99,,,0.00,Acu-Link.com,2013-04-13 20:02:00,
2013-04-13 16:32:00,76.3,37.9,29.80,West,270,4.7,-999.0,25,-99.99,,,0.00,Acu-Link.com,2013-04-13 20:32:00,
2013-04-13 16:47:00,76.5,37.0,29.80,NNW,337,3.2,-999.0,24,-99.99,,,0.00,Acu-Link.com,2013-04-13 20:47:00,
2013-04-13 17:02:00,77.7,40.1,29.79,WNW,292,2.2,-999.0,26,-99.99,,,0.00,Acu-Link.com,2013-04-13 21:02:00,
2013-04-13 17:17:00,76.5,37.0,29.79,NW,315,1.7,-999.0,24,-99.99,,,0.00,Acu-Link.com,2013-04-13 21:17:00,
2013-04-13 17:33:00,75.7,39.3,29.78,SSW,202,0.0,-999.0,27,-99.99,,,0.00,Acu-Link.com,2013-04-13 21:33:00,
2013-04-13 17:48:00,76.5,39.1,29.78,NW,315,2.7,-999.0,26,-99.99,,,0.00,Acu-Link.com,2013-04-13 21:48:00,
2013-04-13 18:03:00,81.0,41.8,29.78,NNW,337,0.0,-999.0,25,-99.99,,,0.00,Acu-Link.com,2013-04-13 22:03:00,
2013-04-13 18:18:00,84.0,38.6,29.78,West,270,1.7,-999.0,20,-99.99,,,0.00,Acu-Link.com,2013-04-13 22:18:00,
2013-04-13 18:33:00,80.8,38.4,29.78,South,180,2.7,-999.0,22,-99.99,,,0.00,Acu-Link.com,2013-04-13 22:33:00,
2013-04-13 18:48:00,79.2,39.3,29.78,WNW,292,1.7,-999.0,24,-99.99,,,0.00,Acu-Link.com,2013-04-13 22:48:00,
2013-04-13 19:03:00,75.9,39.5,29.78,NW,315,1.7,-999.0,27,-99.99,,,0.00,Acu-Link.com,2013-04-13 23:03:00,
2013-04-13 19:18:00,73.6,41.1,29.79,SSW,202,0.0,-999.0,31,-99.99,,,0.00,Acu-Link.com,2013-04-13 23:18:00,
2013-04-13 19:33:00,71.2,42.1,29.79,SSE,157,0.0,-999.0,35,-99.99,,,0.00,Acu-Link.com,2013-04-13 23:33:00,
2013-04-13 19:48:00,69.6,42.9,29.79,SSE,157,0.0,-999.0,38,-99.99,,,0.00,Acu-Link.com,2013-04-13 23:48:00,
2013-04-13 20:04:00,66.7,45.8,29.79,SSW,202,0.0,-999.0,47,-99.99,,,0.00,Acu-Link.com,2013-04-14 00:04:00,
2013-04-13 20:19:00,64.6,44.5,29.79,SSE,157,0.0,-999.0,48,-99.99,,,0.00,Acu-Link.com,2013-04-14 00:19:00,
2013-04-13 20:34:00,62.4,45.5,29.80,SSW,202,0.0,-999.0,54,-99.99,,,0.00,Acu-Link.com,2013-04-14 00:34:00,
2013-04-13 20:49:00,60.6,45.3,29.80,SSE,157,0.0,-999.0,57,-99.99,,,0.00,Acu-Link.com,2013-04-14 00:49:00,
2013-04-13 21:04:00,59.0,46.0,29.81,SW,225,0.0,-999.0,62,-99.99,,,0.00,Acu-Link.com,2013-04-14 01:04:00,
2013-04-13 21:19:00,57.9,45.0,29.81,South,180,0.0,-999.0,62,-99.99,,,0.00,Acu-Link.com,2013-04-14 01:19:00,
2013-04-13 21:34:00,56.5,45.3,29.82,SSE,157,0.0,-999.0,66,-99.99,,,0.00,Acu-Link.com,2013-04-14 01:34:00,
2013-04-13 21:49:00,55.9,43.9,29.83,SSE,157,0.0,-999.0,64,-99.99,,,0.00,Acu-Link.com,2013-04-14 01:49:00,
2013-04-13 22:04:00,55.6,44.8,29.84,South,180,0.0,-999.0,67,-99.99,,,0.00,Acu-Link.com,2013-04-14 02:04:00,
2013-04-13 22:20:00,54.7,45.1,29.85,SSE,157,0.0,-999.0,70,-99.99,,,0.00,Acu-Link.com,2013-04-14 02:20:00,
2013-04-13 22:35:00,54.0,45.9,29.84,South,180,0.0,-999.0,74,-99.99,,,0.00,Acu-Link.com,2013-04-14 02:35:00,
2013-04-13 22:50:00,53.1,46.4,29.85,South,180,0.0,-999.0,78,-99.99,,,0.00,Acu-Link.com,2013-04-14 02:50:00,
2013-04-13 23:05:00,52.0,46.0,29.85,South,180,0.0,-999.0,80,-99.99,,,0.00,Acu-Link.com,2013-04-14 03:05:00,
2013-04-13 23:20:00,50.9,46.2,29.85,NW,315,0.0,-999.0,84,-99.99,,,0.00,Acu-Link.com,2013-04-14 03:20:00,
2013-04-13 23:35:00,50.7,45.4,29.86,South,180,0.0,-999.0,82,-99.99,,,0.00,Acu-Link.com,2013-04-14 03:35:00,
2013-04-13 23:50:00,49.8,45.5,29.86,SSE,157,0.0,-999.0,85,-99.99,,,0.00,Acu-Link.com,2013-04-14 03:50:00,